sensor_id;sensor_type;location;lat;lon;timestamp;P1;durP1;ratioP1;P2;durP2;ratioP2
39982;SDS011;25670;44.782;10.356;2023-04-25T00:01:20;0.80;;;0.80;;
39982;SDS011;25670;44.782;10.356;2023-04-25T00:03:47;2.25;;;0.98;;
39982;SDS011;25670;44.782;10.356;2023-04-25T00:06:14;1.58;;;1.48;;
39982;SDS011;25670;44.782;10.356;2023-04-25T00:08:40;1.83;;;0.73;;
39982;SDS011;25670;44.782;10.356;2023-04-25T00:11:07;1.42;;;0.93;;
39982;SDS011;25670;44.782;10.356;2023-04-25T00:13:33;0.90;;;0.90;;
39982;SDS011;25670;44.782;10.356;2023-04-25T00:16:00;1.27;;;0.95;;
39982;SDS011;25670;44.782;10.356;2023-04-25T00:18:27;1.52;;;1.15;;
39982;SDS011;25670;44.782;10.356;2023-04-25T00:20:54;1.05;;;0.75;;
39982;SDS011;25670;44.782;10.356;2023-04-25T00:23:21;3.17;;;2.15;;
39982;SDS011;25670;44.782;10.356;2023-04-25T00:25:48;8.38;;;1.90;;
39982;SDS011;25670;44.782;10.356;2023-04-25T00:28:15;1.90;;;1.20;;
39982;SDS011;25670;44.782;10.356;2023-04-25T00:30:42;1.33;;;1.23;;
39982;SDS011;25670;44.782;10.356;2023-04-25T00:33:11;3.08;;;1.38;;
39982;SDS011;25670;44.782;10.356;2023-04-25T00:35:37;1.00;;;0.88;;
39982;SDS011;25670;44.782;10.356;2023-04-25T00:38:04;2.05;;;1.10;;
39982;SDS011;25670;44.782;10.356;2023-04-25T00:40:30;4.72;;;1.75;;
39982;SDS011;25670;44.782;10.356;2023-04-25T00:42:57;3.17;;;1.40;;
39982;SDS011;25670;44.782;10.356;2023-04-25T00:45:26;1.50;;;1.40;;
39982;SDS011;25670;44.782;10.356;2023-04-25T00:47:55;0.95;;;0.95;;
39982;SDS011;25670;44.782;10.356;2023-04-25T00:50:22;1.33;;;1.20;;
39982;SDS011;25670;44.782;10.356;2023-04-25T00:52:48;2.58;;;1.58;;
39982;SDS011;25670;44.782;10.356;2023-04-25T00:55:15;5.05;;;1.60;;
39982;SDS011;25670;44.782;10.356;2023-04-25T00:57:42;4.00;;;1.58;;
39982;SDS011;25670;44.782;10.356;2023-04-25T01:00:08;1.40;;;1.30;;
39982;SDS011;25670;44.782;10.356;2023-04-25T01:02:36;1.52;;;1.42;;
39982;SDS011;25670;44.782;10.356;2023-04-25T01:05:03;1.30;;;1.30;;
39982;SDS011;25670;44.782;10.356;2023-04-25T01:07:31;3.88;;;1.40;;
39982;SDS011;25670;44.782;10.356;2023-04-25T01:09:57;1.88;;;1.77;;
39982;SDS011;25670;44.782;10.356;2023-04-25T01:12:24;1.75;;;1.65;;
39982;SDS011;25670;44.782;10.356;2023-04-25T01:14:50;2.20;;;1.83;;
39982;SDS011;25670;44.782;10.356;2023-04-25T01:17:18;1.98;;;1.83;;
39982;SDS011;25670;44.782;10.356;2023-04-25T01:19:44;2.10;;;2.00;;
39982;SDS011;25670;44.782;10.356;2023-04-25T01:22:15;12.70;;;3.05;;
39982;SDS011;25670;44.782;10.356;2023-04-25T01:24:42;3.20;;;2.13;;
39982;SDS011;25670;44.782;10.356;2023-04-25T01:27:09;3.22;;;2.00;;
39982;SDS011;25670;44.782;10.356;2023-04-25T01:29:36;2.28;;;2.10;;
39982;SDS011;25670;44.782;10.356;2023-04-25T01:32:02;5.35;;;2.08;;
39982;SDS011;25670;44.782;10.356;2023-04-25T01:34:29;2.22;;;1.95;;
39982;SDS011;25670;44.782;10.356;2023-04-25T01:36:57;5.03;;;1.73;;
39982;SDS011;25670;44.782;10.356;2023-04-25T01:39:25;2.72;;;2.33;;
39982;SDS011;25670;44.782;10.356;2023-04-25T01:41:52;2.53;;;2.40;;
39982;SDS011;25670;44.782;10.356;2023-04-25T01:44:18;3.13;;;2.13;;
39982;SDS011;25670;44.782;10.356;2023-04-25T01:46:45;2.13;;;2.03;;
39982;SDS011;25670;44.782;10.356;2023-04-25T01:49:11;4.07;;;2.28;;
39982;SDS011;25670;44.782;10.356;2023-04-25T01:51:39;6.60;;;2.35;;
39982;SDS011;25670;44.782;10.356;2023-04-25T01:54:07;2.65;;;2.50;;
39982;SDS011;25670;44.782;10.356;2023-04-25T01:56:36;5.70;;;2.38;;
39982;SDS011;25670;44.782;10.356;2023-04-25T01:59:03;2.65;;;2.45;;
39982;SDS011;25670;44.782;10.356;2023-04-25T02:01:49;2.38;;;2.17;;
39982;SDS011;25670;44.782;10.356;2023-04-25T02:04:23;5.32;;;2.50;;
39982;SDS011;25670;44.782;10.356;2023-04-25T02:06:51;4.95;;;2.40;;
39982;SDS011;25670;44.782;10.356;2023-04-25T02:09:17;2.42;;;2.25;;
39982;SDS011;25670;44.782;10.356;2023-04-25T02:11:49;2.58;;;2.22;;
39982;SDS011;25670;44.782;10.356;2023-04-25T02:14:36;2.75;;;2.55;;
39982;SDS011;25670;44.782;10.356;2023-04-25T02:17:20;3.45;;;2.67;;
39982;SDS011;25670;44.782;10.356;2023-04-25T02:19:47;3.17;;;2.20;;
39982;SDS011;25670;44.782;10.356;2023-04-25T02:22:14;3.28;;;2.25;;
39982;SDS011;25670;44.782;10.356;2023-04-25T02:24:40;2.67;;;2.47;;
39982;SDS011;25670;44.782;10.356;2023-04-25T02:27:07;2.70;;;2.50;;
39982;SDS011;25670;44.782;10.356;2023-04-25T02:29:34;4.95;;;2.45;;
39982;SDS011;25670;44.782;10.356;2023-04-25T02:32:01;3.45;;;2.70;;
39982;SDS011;25670;44.782;10.356;2023-04-25T02:34:28;4.88;;;2.97;;
39982;SDS011;25670;44.782;10.356;2023-04-25T02:36:54;3.05;;;2.80;;
39982;SDS011;25670;44.782;10.356;2023-04-25T02:39:21;2.88;;;2.67;;
39982;SDS011;25670;44.782;10.356;2023-04-25T02:41:51;5.25;;;3.20;;
39982;SDS011;25670;44.782;10.356;2023-04-25T02:44:18;6.07;;;2.75;;
39982;SDS011;25670;44.782;10.356;2023-04-25T02:46:45;4.18;;;3.78;;
39982;SDS011;25670;44.782;10.356;2023-04-25T02:49:12;3.67;;;3.45;;
39982;SDS011;25670;44.782;10.356;2023-04-25T02:51:38;3.65;;;3.35;;
39982;SDS011;25670;44.782;10.356;2023-04-25T02:54:05;3.85;;;3.53;;
39982;SDS011;25670;44.782;10.356;2023-04-25T02:56:36;5.30;;;3.65;;
39982;SDS011;25670;44.782;10.356;2023-04-25T02:59:06;4.40;;;3.95;;
39982;SDS011;25670;44.782;10.356;2023-04-25T03:01:33;8.10;;;3.65;;
39982;SDS011;25670;44.782;10.356;2023-04-25T03:03:59;3.95;;;3.65;;
39982;SDS011;25670;44.782;10.356;2023-04-25T03:06:25;5.30;;;3.60;;
39982;SDS011;25670;44.782;10.356;2023-04-25T03:08:52;5.57;;;3.28;;
39982;SDS011;25670;44.782;10.356;2023-04-25T03:11:19;10.45;;;4.10;;
39982;SDS011;25670;44.782;10.356;2023-04-25T03:13:46;4.28;;;3.88;;
39982;SDS011;25670;44.782;10.356;2023-04-25T03:16:13;6.50;;;3.97;;
39982;SDS011;25670;44.782;10.356;2023-04-25T03:18:39;4.30;;;4.00;;
39982;SDS011;25670;44.782;10.356;2023-04-25T03:21:06;8.43;;;4.35;;
39982;SDS011;25670;44.782;10.356;2023-04-25T03:23:33;4.72;;;4.07;;
39982;SDS011;25670;44.782;10.356;2023-04-25T03:25:59;4.97;;;4.53;;
39982;SDS011;25670;44.782;10.356;2023-04-25T03:28:26;5.05;;;4.72;;
39982;SDS011;25670;44.782;10.356;2023-04-25T03:30:54;4.60;;;4.20;;
39982;SDS011;25670;44.782;10.356;2023-04-25T03:33:21;4.90;;;4.38;;
39982;SDS011;25670;44.782;10.356;2023-04-25T03:35:48;5.30;;;4.95;;
39982;SDS011;25670;44.782;10.356;2023-04-25T03:38:16;6.22;;;4.05;;
39982;SDS011;25670;44.782;10.356;2023-04-25T03:40:44;4.88;;;4.47;;
39982;SDS011;25670;44.782;10.356;2023-04-25T03:46:06;6.10;;;4.25;;
39982;SDS011;25670;44.782;10.356;2023-04-25T03:48:33;4.80;;;4.50;;
39982;SDS011;25670;44.782;10.356;2023-04-25T03:50:59;5.25;;;4.47;;
39982;SDS011;25670;44.782;10.356;2023-04-25T03:53:26;6.63;;;5.53;;
39982;SDS011;25670;44.782;10.356;2023-04-25T03:56:16;5.18;;;4.78;;
39982;SDS011;25670;44.782;10.356;2023-04-25T03:58:44;7.95;;;4.50;;
39982;SDS011;25670;44.782;10.356;2023-04-25T04:01:12;5.25;;;4.75;;
39982;SDS011;25670;44.782;10.356;2023-04-25T04:03:39;5.20;;;4.80;;
39982;SDS011;25670;44.782;10.356;2023-04-25T04:06:06;8.18;;;4.80;;
39982;SDS011;25670;44.782;10.356;2023-04-25T04:08:40;5.10;;;4.47;;
39982;SDS011;25670;44.782;10.356;2023-04-25T04:11:08;4.65;;;4.05;;
39982;SDS011;25670;44.782;10.356;2023-04-25T04:13:36;5.57;;;4.50;;
39982;SDS011;25670;44.782;10.356;2023-04-25T04:16:03;5.47;;;4.97;;
39982;SDS011;25670;44.782;10.356;2023-04-25T04:18:30;5.47;;;4.28;;
39982;SDS011;25670;44.782;10.356;2023-04-25T04:20:59;4.88;;;4.47;;
39982;SDS011;25670;44.782;10.356;2023-04-25T04:23:28;5.40;;;4.70;;
39982;SDS011;25670;44.782;10.356;2023-04-25T04:25:56;7.13;;;4.38;;
39982;SDS011;25670;44.782;10.356;2023-04-25T04:28:23;13.60;;;5.47;;
39982;SDS011;25670;44.782;10.356;2023-04-25T04:30:54;5.53;;;5.07;;
39982;SDS011;25670;44.782;10.356;2023-04-25T04:33:21;9.20;;;5.63;;
39982;SDS011;25670;44.782;10.356;2023-04-25T04:35:54;4.80;;;4.50;;
39982;SDS011;25670;44.782;10.356;2023-04-25T04:38:25;5.20;;;4.80;;
39982;SDS011;25670;44.782;10.356;2023-04-25T04:40:54;8.00;;;4.82;;
39982;SDS011;25670;44.782;10.356;2023-04-25T04:43:53;7.63;;;5.93;;
39982;SDS011;25670;44.782;10.356;2023-04-25T04:46:41;7.60;;;5.57;;
39982;SDS011;25670;44.782;10.356;2023-04-25T04:49:19;6.25;;;5.63;;
39982;SDS011;25670;44.782;10.356;2023-04-25T04:52:06;5.55;;;5.13;;
39982;SDS011;25670;44.782;10.356;2023-04-25T04:54:53;7.75;;;5.72;;
39982;SDS011;25670;44.782;10.356;2023-04-25T04:57:49;6.07;;;4.88;;
39982;SDS011;25670;44.782;10.356;2023-04-25T05:00:34;5.60;;;5.03;;
39982;SDS011;25670;44.782;10.356;2023-04-25T05:03:31;7.35;;;5.50;;
39982;SDS011;25670;44.782;10.356;2023-04-25T05:06:36;7.28;;;4.85;;
39982;SDS011;25670;44.782;10.356;2023-04-25T05:09:21;5.03;;;4.63;;
39982;SDS011;25670;44.782;10.356;2023-04-25T05:12:05;5.50;;;5.03;;
39982;SDS011;25670;44.782;10.356;2023-04-25T05:14:49;11.82;;;4.97;;
39982;SDS011;25670;44.782;10.356;2023-04-25T05:17:41;7.07;;;4.57;;
39982;SDS011;25670;44.782;10.356;2023-04-25T05:20:25;6.18;;;5.38;;
39982;SDS011;25670;44.782;10.356;2023-04-25T05:23:13;4.78;;;4.45;;
39982;SDS011;25670;44.782;10.356;2023-04-25T05:25:56;5.72;;;4.55;;
39982;SDS011;25670;44.782;10.356;2023-04-25T05:28:33;4.07;;;3.78;;
39982;SDS011;25670;44.782;10.356;2023-04-25T05:31:18;8.82;;;5.43;;
39982;SDS011;25670;44.782;10.356;2023-04-25T05:34:08;4.88;;;4.10;;
39982;SDS011;25670;44.782;10.356;2023-04-25T05:36:42;5.30;;;3.60;;
39982;SDS011;25670;44.782;10.356;2023-04-25T05:39:08;5.32;;;3.78;;
39982;SDS011;25670;44.782;10.356;2023-04-25T05:41:54;3.90;;;3.58;;
39982;SDS011;25670;44.782;10.356;2023-04-25T05:44:39;3.95;;;3.55;;
39982;SDS011;25670;44.782;10.356;2023-04-25T05:47:34;4.10;;;3.60;;
39982;SDS011;25670;44.782;10.356;2023-04-25T05:50:24;5.20;;;3.55;;
39982;SDS011;25670;44.782;10.356;2023-04-25T05:53:02;13.38;;;4.28;;
39982;SDS011;25670;44.782;10.356;2023-04-25T05:55:38;4.40;;;3.67;;
39982;SDS011;25670;44.782;10.356;2023-04-25T05:58:22;5.50;;;3.72;;
39982;SDS011;25670;44.782;10.356;2023-04-25T06:00:49;4.10;;;3.58;;
39982;SDS011;25670;44.782;10.356;2023-04-25T06:03:16;3.90;;;3.70;;
39982;SDS011;25670;44.782;10.356;2023-04-25T06:05:44;4.90;;;3.85;;
39982;SDS011;25670;44.782;10.356;2023-04-25T06:08:11;5.97;;;4.05;;
39982;SDS011;25670;44.782;10.356;2023-04-25T06:10:37;3.88;;;3.55;;
39982;SDS011;25670;44.782;10.356;2023-04-25T06:13:04;6.10;;;3.58;;
39982;SDS011;25670;44.782;10.356;2023-04-25T06:15:32;3.90;;;3.45;;
39982;SDS011;25670;44.782;10.356;2023-04-25T06:18:00;4.22;;;3.80;;
39982;SDS011;25670;44.782;10.356;2023-04-25T06:20:26;5.85;;;3.00;;
39982;SDS011;25670;44.782;10.356;2023-04-25T06:22:56;3.92;;;3.45;;
39982;SDS011;25670;44.782;10.356;2023-04-25T06:25:45;3.15;;;2.70;;
39982;SDS011;25670;44.782;10.356;2023-04-25T06:28:12;3.53;;;3.03;;
39982;SDS011;25670;44.782;10.356;2023-04-25T06:30:40;5.03;;;3.10;;
39982;SDS011;25670;44.782;10.356;2023-04-25T06:33:10;5.50;;;2.90;;
39982;SDS011;25670;44.782;10.356;2023-04-25T06:35:38;4.72;;;2.75;;
39982;SDS011;25670;44.782;10.356;2023-04-25T06:38:07;5.35;;;3.00;;
39982;SDS011;25670;44.782;10.356;2023-04-25T06:40:37;3.00;;;2.78;;
39982;SDS011;25670;44.782;10.356;2023-04-25T06:43:04;8.13;;;3.95;;
39982;SDS011;25670;44.782;10.356;2023-04-25T06:45:51;2.88;;;2.65;;
39982;SDS011;25670;44.782;10.356;2023-04-25T06:48:19;3.22;;;2.70;;
39982;SDS011;25670;44.782;10.356;2023-04-25T06:50:46;5.95;;;3.10;;
39982;SDS011;25670;44.782;10.356;2023-04-25T06:53:13;2.97;;;2.78;;
39982;SDS011;25670;44.782;10.356;2023-04-25T06:55:41;2.50;;;2.40;;
39982;SDS011;25670;44.782;10.356;2023-04-25T06:58:22;3.70;;;2.42;;
39982;SDS011;25670;44.782;10.356;2023-04-25T07:01:11;2.67;;;2.45;;
39982;SDS011;25670;44.782;10.356;2023-04-25T07:03:38;5.55;;;2.30;;
39982;SDS011;25670;44.782;10.356;2023-04-25T07:06:11;5.13;;;4.53;;
39982;SDS011;25670;44.782;10.356;2023-04-25T07:08:38;3.80;;;3.50;;
39982;SDS011;25670;44.782;10.356;2023-04-25T07:11:04;3.33;;;2.88;;
39982;SDS011;25670;44.782;10.356;2023-04-25T07:13:31;3.55;;;3.33;;
39982;SDS011;25670;44.782;10.356;2023-04-25T07:15:57;4.15;;;2.85;;
39982;SDS011;25670;44.782;10.356;2023-04-25T07:18:26;5.70;;;2.88;;
39982;SDS011;25670;44.782;10.356;2023-04-25T07:20:53;5.53;;;3.45;;
39982;SDS011;25670;44.782;10.356;2023-04-25T07:23:19;4.10;;;3.53;;
39982;SDS011;25670;44.782;10.356;2023-04-25T07:25:46;7.45;;;3.45;;
39982;SDS011;25670;44.782;10.356;2023-04-25T07:28:17;3.25;;;3.05;;
39982;SDS011;25670;44.782;10.356;2023-04-25T07:30:44;3.20;;;2.97;;
39982;SDS011;25670;44.782;10.356;2023-04-25T07:33:11;3.90;;;3.55;;
39982;SDS011;25670;44.782;10.356;2023-04-25T07:35:37;3.60;;;2.97;;
39982;SDS011;25670;44.782;10.356;2023-04-25T07:38:04;3.50;;;3.30;;
39982;SDS011;25670;44.782;10.356;2023-04-25T07:40:32;3.63;;;3.30;;
39982;SDS011;25670;44.782;10.356;2023-04-25T07:43:05;5.55;;;3.05;;
39982;SDS011;25670;44.782;10.356;2023-04-25T07:45:38;2.75;;;2.55;;
39982;SDS011;25670;44.782;10.356;2023-04-25T07:48:05;3.17;;;2.83;;
39982;SDS011;25670;44.782;10.356;2023-04-25T07:50:34;3.80;;;3.25;;
39982;SDS011;25670;44.782;10.356;2023-04-25T07:53:01;2.97;;;2.78;;
39982;SDS011;25670;44.782;10.356;2023-04-25T07:55:35;3.92;;;3.63;;
39982;SDS011;25670;44.782;10.356;2023-04-25T07:58:07;3.55;;;3.33;;
39982;SDS011;25670;44.782;10.356;2023-04-25T08:00:37;2.97;;;2.72;;
39982;SDS011;25670;44.782;10.356;2023-04-25T08:03:32;1.50;;;0.90;;
39982;SDS011;25670;44.782;10.356;2023-04-25T08:06:00;2.25;;;0.60;;
39982;SDS011;25670;44.782;10.356;2023-04-25T08:08:30;0.50;;;0.30;;
39982;SDS011;25670;44.782;10.356;2023-04-25T08:10:57;0.60;;;0.10;;
39982;SDS011;25670;44.782;10.356;2023-04-25T08:13:24;0.17;;;0.17;;
39982;SDS011;25670;44.782;10.356;2023-04-25T08:15:52;0.13;;;0.13;;
39982;SDS011;25670;44.782;10.356;2023-04-25T08:18:18;0.40;;;0.20;;
39982;SDS011;25670;44.782;10.356;2023-04-25T08:20:47;0.63;;;0.28;;
39982;SDS011;25670;44.782;10.356;2023-04-25T08:23:14;0.35;;;0.10;;
39982;SDS011;25670;44.782;10.356;2023-04-25T08:25:51;0.43;;;0.25;;
39982;SDS011;25670;44.782;10.356;2023-04-25T08:28:21;0.22;;;0.10;;
39982;SDS011;25670;44.782;10.356;2023-04-25T08:30:48;1.95;;;0.25;;
39982;SDS011;25670;44.782;10.356;2023-04-25T08:33:16;0.28;;;0.10;;
39982;SDS011;25670;44.782;10.356;2023-04-25T08:36:12;0.77;;;0.20;;
39982;SDS011;25670;44.782;10.356;2023-04-25T08:38:38;0.30;;;0.13;;
39982;SDS011;25670;44.782;10.356;2023-04-25T08:41:08;0.10;;;0.10;;
39982;SDS011;25670;44.782;10.356;2023-04-25T08:43:37;1.35;;;0.20;;
39982;SDS011;25670;44.782;10.356;2023-04-25T08:46:08;0.10;;;0.00;;
39982;SDS011;25670;44.782;10.356;2023-04-25T08:48:43;0.17;;;0.10;;
39982;SDS011;25670;44.782;10.356;2023-04-25T08:51:15;0.30;;;0.10;;
39982;SDS011;25670;44.782;10.356;2023-04-25T08:53:50;1.75;;;0.10;;
39982;SDS011;25670;44.782;10.356;2023-04-25T08:56:19;0.32;;;0.10;;
39982;SDS011;25670;44.782;10.356;2023-04-25T08:58:48;0.35;;;0.10;;
39982;SDS011;25670;44.782;10.356;2023-04-25T09:01:16;0.10;;;0.10;;
39982;SDS011;25670;44.782;10.356;2023-04-25T09:03:49;3.20;;;0.30;;
39982;SDS011;25670;44.782;10.356;2023-04-25T09:06:17;1.85;;;0.20;;
39982;SDS011;25670;44.782;10.356;2023-04-25T09:08:44;0.20;;;0.10;;
39982;SDS011;25670;44.782;10.356;2023-04-25T09:11:10;4.22;;;0.20;;
39982;SDS011;25670;44.782;10.356;2023-04-25T09:13:39;4.47;;;1.10;;
39982;SDS011;25670;44.782;10.356;2023-04-25T09:16:57;0.38;;;0.17;;
39982;SDS011;25670;44.782;10.356;2023-04-25T09:19:54;3.13;;;0.13;;
39982;SDS011;25670;44.782;10.356;2023-04-25T09:24:51;1.25;;;0.57;;
39982;SDS011;25670;44.782;10.356;2023-04-25T09:27:21;0.45;;;0.10;;
39982;SDS011;25670;44.782;10.356;2023-04-25T09:29:58;0.10;;;0.08;;
39982;SDS011;25670;44.782;10.356;2023-04-25T09:32:28;0.40;;;0.10;;
39982;SDS011;25670;44.782;10.356;2023-04-25T09:34:57;0.30;;;0.10;;
39982;SDS011;25670;44.782;10.356;2023-04-25T09:37:26;6.75;;;0.45;;
39982;SDS011;25670;44.782;10.356;2023-04-25T09:40:19;1.30;;;0.25;;
39982;SDS011;25670;44.782;10.356;2023-04-25T09:43:01;0.28;;;0.28;;
39982;SDS011;25670;44.782;10.356;2023-04-25T09:45:29;0.75;;;0.68;;
39982;SDS011;25670;44.782;10.356;2023-04-25T09:47:59;0.10;;;0.10;;
39982;SDS011;25670;44.782;10.356;2023-04-25T09:50:34;5.18;;;2.90;;
39982;SDS011;25670;44.782;10.356;2023-04-25T09:53:07;0.38;;;0.20;;
39982;SDS011;25670;44.782;10.356;2023-04-25T09:55:50;0.28;;;0.20;;
39982;SDS011;25670;44.782;10.356;2023-04-25T09:58:17;3.83;;;0.47;;
39982;SDS011;25670;44.782;10.356;2023-04-25T10:00:44;1.88;;;0.25;;
39982;SDS011;25670;44.782;10.356;2023-04-25T10:03:23;9.82;;;1.08;;
39982;SDS011;25670;44.782;10.356;2023-04-25T10:06:07;2.60;;;0.50;;
39982;SDS011;25670;44.782;10.356;2023-04-25T10:08:37;0.45;;;0.22;;
39982;SDS011;25670;44.782;10.356;2023-04-25T10:11:05;2.13;;;1.35;;
39982;SDS011;25670;44.782;10.356;2023-04-25T10:13:38;1.20;;;0.32;;
39982;SDS011;25670;44.782;10.356;2023-04-25T10:16:05;0.25;;;0.20;;
39982;SDS011;25670;44.782;10.356;2023-04-25T10:18:31;0.63;;;0.20;;
39982;SDS011;25670;44.782;10.356;2023-04-25T10:20:59;1.75;;;0.30;;
39982;SDS011;25670;44.782;10.356;2023-04-25T10:23:26;0.80;;;0.35;;
39982;SDS011;25670;44.782;10.356;2023-04-25T10:25:54;1.35;;;0.30;;
39982;SDS011;25670;44.782;10.356;2023-04-25T10:28:21;0.75;;;0.35;;
39982;SDS011;25670;44.782;10.356;2023-04-25T10:31:00;3.60;;;0.28;;
39982;SDS011;25670;44.782;10.356;2023-04-25T10:33:36;4.47;;;1.27;;
39982;SDS011;25670;44.782;10.356;2023-04-25T10:36:11;1.50;;;0.57;;
39982;SDS011;25670;44.782;10.356;2023-04-25T10:38:38;6.00;;;1.33;;
39982;SDS011;25670;44.782;10.356;2023-04-25T10:41:06;1.45;;;0.90;;
39982;SDS011;25670;44.782;10.356;2023-04-25T10:43:36;0.60;;;0.40;;
39982;SDS011;25670;44.782;10.356;2023-04-25T10:46:25;21.30;;;3.70;;
39982;SDS011;25670;44.782;10.356;2023-04-25T10:48:56;0.60;;;0.50;;
39982;SDS011;25670;44.782;10.356;2023-04-25T10:51:24;1.08;;;0.75;;
39982;SDS011;25670;44.782;10.356;2023-04-25T10:56:21;1.75;;;0.70;;
39982;SDS011;25670;44.782;10.356;2023-04-25T10:58:48;3.60;;;0.77;;
39982;SDS011;25670;44.782;10.356;2023-04-25T11:01:21;2.38;;;1.15;;
39982;SDS011;25670;44.782;10.356;2023-04-25T11:03:56;1.15;;;0.60;;
39982;SDS011;25670;44.782;10.356;2023-04-25T11:06:28;1.02;;;0.70;;
39982;SDS011;25670;44.782;10.356;2023-04-25T11:09:03;2.72;;;0.82;;
39982;SDS011;25670;44.782;10.356;2023-04-25T11:11:38;2.70;;;1.52;;
39982;SDS011;25670;44.782;10.356;2023-04-25T11:14:05;4.68;;;2.25;;
39982;SDS011;25670;44.782;10.356;2023-04-25T11:16:31;2.67;;;1.92;;
39982;SDS011;25670;44.782;10.356;2023-04-25T11:18:58;5.00;;;3.40;;
39982;SDS011;25670;44.782;10.356;2023-04-25T11:21:25;4.60;;;2.00;;
39982;SDS011;25670;44.782;10.356;2023-04-25T11:23:56;4.72;;;1.80;;
39982;SDS011;25670;44.782;10.356;2023-04-25T11:26:22;6.40;;;2.42;;
39982;SDS011;25670;44.782;10.356;2023-04-25T11:28:48;5.13;;;1.33;;
39982;SDS011;25670;44.782;10.356;2023-04-25T11:31:15;2.45;;;1.20;;
39982;SDS011;25670;44.782;10.356;2023-04-25T11:33:42;1.38;;;0.90;;
39982;SDS011;25670;44.782;10.356;2023-04-25T11:36:10;1.38;;;0.77;;
39982;SDS011;25670;44.782;10.356;2023-04-25T11:38:36;1.08;;;0.95;;
39982;SDS011;25670;44.782;10.356;2023-04-25T11:41:02;3.00;;;0.80;;
39982;SDS011;25670;44.782;10.356;2023-04-25T11:43:29;1.00;;;1.00;;
39982;SDS011;25670;44.782;10.356;2023-04-25T11:45:55;1.00;;;0.85;;
39982;SDS011;25670;44.782;10.356;2023-04-25T11:48:22;0.68;;;0.68;;
39982;SDS011;25670;44.782;10.356;2023-04-25T11:50:48;1.70;;;1.05;;
39982;SDS011;25670;44.782;10.356;2023-04-25T11:53:14;4.13;;;0.93;;
39982;SDS011;25670;44.782;10.356;2023-04-25T11:55:43;3.45;;;0.73;;
39982;SDS011;25670;44.782;10.356;2023-04-25T11:58:10;1.98;;;1.00;;
39982;SDS011;25670;44.782;10.356;2023-04-25T12:00:36;3.17;;;1.02;;
39982;SDS011;25670;44.782;10.356;2023-04-25T12:03:03;2.80;;;0.73;;
39982;SDS011;25670;44.782;10.356;2023-04-25T12:05:30;7.70;;;1.52;;
39982;SDS011;25670;44.782;10.356;2023-04-25T12:08:14;0.75;;;0.57;;
39982;SDS011;25670;44.782;10.356;2023-04-25T12:10:42;0.75;;;0.50;;
39982;SDS011;25670;44.782;10.356;2023-04-25T12:15:50;1.25;;;1.15;;
39982;SDS011;25670;44.782;10.356;2023-04-25T12:18:20;0.85;;;0.60;;
39982;SDS011;25670;44.782;10.356;2023-04-25T12:20:48;1.48;;;0.73;;
39982;SDS011;25670;44.782;10.356;2023-04-25T12:23:15;5.93;;;0.70;;
39982;SDS011;25670;44.782;10.356;2023-04-25T12:25:41;2.58;;;0.60;;
39982;SDS011;25670;44.782;10.356;2023-04-25T12:30:56;0.98;;;0.70;;
39982;SDS011;25670;44.782;10.356;2023-04-25T12:33:28;2.28;;;0.68;;
39982;SDS011;25670;44.782;10.356;2023-04-25T12:35:56;1.80;;;0.52;;
39982;SDS011;25670;44.782;10.356;2023-04-25T12:38:27;2.70;;;0.70;;
39982;SDS011;25670;44.782;10.356;2023-04-25T12:40:55;2.47;;;0.85;;
39982;SDS011;25670;44.782;10.356;2023-04-25T12:43:22;2.63;;;0.50;;
39982;SDS011;25670;44.782;10.356;2023-04-25T12:45:50;2.53;;;0.50;;
39982;SDS011;25670;44.782;10.356;2023-04-25T12:48:17;1.42;;;0.93;;
39982;SDS011;25670;44.782;10.356;2023-04-25T12:50:43;2.40;;;1.33;;
39982;SDS011;25670;44.782;10.356;2023-04-25T12:53:10;1.63;;;0.70;;
39982;SDS011;25670;44.782;10.356;2023-04-25T12:55:37;1.10;;;1.00;;
39982;SDS011;25670;44.782;10.356;2023-04-25T12:58:03;3.05;;;0.70;;
39982;SDS011;25670;44.782;10.356;2023-04-25T13:00:29;3.65;;;0.85;;
39982;SDS011;25670;44.782;10.356;2023-04-25T13:02:57;1.13;;;0.68;;
39982;SDS011;25670;44.782;10.356;2023-04-25T13:05:23;0.77;;;0.63;;
39982;SDS011;25670;44.782;10.356;2023-04-25T13:07:49;1.45;;;0.60;;
39982;SDS011;25670;44.782;10.356;2023-04-25T13:10:15;1.35;;;0.55;;
39982;SDS011;25670;44.782;10.356;2023-04-25T13:12:43;1.33;;;0.88;;
39982;SDS011;25670;44.782;10.356;2023-04-25T13:15:09;3.67;;;0.73;;
39982;SDS011;25670;44.782;10.356;2023-04-25T13:17:37;0.68;;;0.63;;
39982;SDS011;25670;44.782;10.356;2023-04-25T13:20:04;1.25;;;0.80;;
39982;SDS011;25670;44.782;10.356;2023-04-25T13:22:38;1.42;;;0.85;;
39982;SDS011;25670;44.782;10.356;2023-04-25T13:25:05;1.30;;;1.10;;
39982;SDS011;25670;44.782;10.356;2023-04-25T13:27:33;0.70;;;0.63;;
39982;SDS011;25670;44.782;10.356;2023-04-25T13:30:01;2.60;;;0.80;;
39982;SDS011;25670;44.782;10.356;2023-04-25T13:32:33;1.73;;;1.55;;
39982;SDS011;25670;44.782;10.356;2023-04-25T13:35:02;3.33;;;0.82;;
39982;SDS011;25670;44.782;10.356;2023-04-25T13:37:30;0.90;;;0.70;;
39982;SDS011;25670;44.782;10.356;2023-04-25T13:40:19;1.52;;;1.40;;
39982;SDS011;25670;44.782;10.356;2023-04-25T13:42:44;3.53;;;0.80;;
39982;SDS011;25670;44.782;10.356;2023-04-25T13:45:11;4.05;;;2.53;;
39982;SDS011;25670;44.782;10.356;2023-04-25T13:47:37;6.13;;;1.85;;
39982;SDS011;25670;44.782;10.356;2023-04-25T13:50:04;0.60;;;0.50;;
39982;SDS011;25670;44.782;10.356;2023-04-25T13:52:33;2.72;;;0.52;;
39982;SDS011;25670;44.782;10.356;2023-04-25T13:54:59;0.93;;;0.60;;
39982;SDS011;25670;44.782;10.356;2023-04-25T13:57:30;4.10;;;0.63;;
39982;SDS011;25670;44.782;10.356;2023-04-25T13:59:56;0.73;;;0.63;;
39982;SDS011;25670;44.782;10.356;2023-04-25T14:02:22;1.83;;;1.02;;
39982;SDS011;25670;44.782;10.356;2023-04-25T14:04:49;1.90;;;1.35;;
39982;SDS011;25670;44.782;10.356;2023-04-25T14:07:15;0.65;;;0.65;;
39982;SDS011;25670;44.782;10.356;2023-04-25T14:09:42;2.05;;;0.57;;
39982;SDS011;25670;44.782;10.356;2023-04-25T14:12:08;3.03;;;0.50;;
39982;SDS011;25670;44.782;10.356;2023-04-25T14:14:34;0.90;;;0.35;;
39982;SDS011;25670;44.782;10.356;2023-04-25T14:17:01;2.42;;;0.70;;
39982;SDS011;25670;44.782;10.356;2023-04-25T14:19:27;0.63;;;0.57;;
39982;SDS011;25670;44.782;10.356;2023-04-25T14:21:54;1.10;;;0.57;;
39982;SDS011;25670;44.782;10.356;2023-04-25T14:24:20;0.90;;;0.70;;
39982;SDS011;25670;44.782;10.356;2023-04-25T14:26:47;1.80;;;0.40;;
39982;SDS011;25670;44.782;10.356;2023-04-25T14:29:13;0.30;;;0.30;;
39982;SDS011;25670;44.782;10.356;2023-04-25T14:31:40;1.27;;;0.47;;
39982;SDS011;25670;44.782;10.356;2023-04-25T14:34:07;0.60;;;0.40;;
39982;SDS011;25670;44.782;10.356;2023-04-25T14:36:33;0.70;;;0.50;;
39982;SDS011;25670;44.782;10.356;2023-04-25T14:39:01;0.45;;;0.35;;
39982;SDS011;25670;44.782;10.356;2023-04-25T14:41:28;0.98;;;0.40;;
39982;SDS011;25670;44.782;10.356;2023-04-25T14:43:54;2.63;;;0.32;;
39982;SDS011;25670;44.782;10.356;2023-04-25T14:46:22;0.38;;;0.38;;
39982;SDS011;25670;44.782;10.356;2023-04-25T14:48:49;0.60;;;0.55;;
39982;SDS011;25670;44.782;10.356;2023-04-25T14:51:15;0.68;;;0.57;;
39982;SDS011;25670;44.782;10.356;2023-04-25T14:53:42;0.40;;;0.40;;
39982;SDS011;25670;44.782;10.356;2023-04-25T14:56:08;2.80;;;0.70;;
39982;SDS011;25670;44.782;10.356;2023-04-25T14:58:34;0.63;;;0.40;;
39982;SDS011;25670;44.782;10.356;2023-04-25T15:01:01;0.68;;;0.40;;
39982;SDS011;25670;44.782;10.356;2023-04-25T15:03:27;1.30;;;0.40;;
39982;SDS011;25670;44.782;10.356;2023-04-25T15:05:54;0.50;;;0.30;;